createdAt,value
2022-10-17T00:00:36.334Z,7.68
2022-10-17T00:03:39.455Z,8.30
2022-10-17T00:06:41.209Z,7.28
2022-10-17T00:09:44.036Z,8.35
2022-10-17T00:12:45.590Z,8.15
2022-10-17T00:15:47.128Z,8.63
2022-10-17T00:18:48.669Z,8.63
2022-10-17T00:21:50.375Z,7.15
2022-10-17T00:24:51.986Z,7.57
2022-10-17T00:27:53.509Z,8.55
2022-10-17T00:30:59.904Z,7.70
2022-10-17T00:34:01.442Z,7.15
2022-10-17T00:37:02.990Z,7.50
2022-10-17T00:40:06.872Z,7.53
2022-10-17T00:43:18.154Z,7.47
2022-10-17T00:46:20.403Z,7.45
2022-10-17T00:49:24.562Z,7.63
2022-10-17T00:52:29.738Z,7.20
2022-10-17T00:55:35.368Z,7.03
2022-10-17T00:58:36.895Z,7.90
2022-10-17T01:01:46.202Z,6.60
2022-10-17T01:04:51.062Z,7.35
2022-10-17T01:07:53.864Z,7.35
2022-10-17T01:11:16.543Z,6.85
2022-10-17T01:14:54.010Z,6.32
2022-10-17T01:18:04.829Z,7.05
2022-10-17T01:21:06.337Z,6.90
2022-10-17T01:24:49.068Z,7.13
2022-10-17T01:28:18.612Z,6.60
2022-10-17T01:31:29.477Z,6.90
2022-10-17T01:34:32.903Z,6.43
2022-10-17T01:37:45.138Z,6.78
2022-10-17T01:40:55.910Z,7.28
2022-10-17T01:44:13.397Z,7.05
2022-10-17T01:47:19.623Z,6.82
2022-10-17T01:50:27.884Z,6.43
2022-10-17T01:53:34.403Z,6.53
2022-10-17T01:56:37.971Z,6.70
2022-10-17T01:59:47.137Z,6.90
2022-10-17T02:02:52.914Z,6.78
2022-10-17T02:05:54.548Z,6.88
2022-10-17T02:08:56.159Z,6.63
2022-10-17T02:12:45.236Z,6.60
2022-10-17T02:15:52.623Z,6.35
2022-10-17T02:19:30.585Z,6.30
2022-10-17T02:22:47.469Z,6.18
2022-10-17T02:26:02.962Z,6.65
2022-10-17T02:29:19.203Z,6.70
2022-10-17T02:32:33.539Z,6.13
2022-10-17T02:35:40.316Z,6.35
2022-10-17T02:38:43.297Z,5.90
2022-10-17T02:41:45.928Z,6.03
2022-10-17T02:44:48.229Z,6.15
2022-10-17T02:47:53.239Z,6.30
2022-10-17T02:51:17.368Z,6.80
2022-10-17T02:54:43.797Z,6.20
2022-10-17T02:57:50.876Z,7.00
2022-10-17T03:00:53.030Z,6.43
2022-10-17T03:04:12.632Z,6.30
2022-10-17T03:07:14.195Z,6.15
2022-10-17T03:10:16.086Z,6.40
2022-10-17T03:13:17.985Z,5.78
2022-10-17T03:16:19.532Z,5.40
2022-10-17T03:19:21.074Z,6.68
2022-10-17T03:22:23.091Z,6.72
2022-10-17T03:25:24.747Z,6.00
2022-10-17T03:28:26.338Z,5.95
2022-10-17T03:31:27.943Z,6.07
2022-10-17T03:34:29.474Z,5.82
2022-10-17T03:37:31.329Z,5.90
2022-10-17T03:40:32.997Z,5.47
2022-10-17T03:43:34.636Z,5.78
2022-10-17T03:46:36.252Z,5.40
2022-10-17T03:49:37.809Z,6.03
2022-10-17T03:52:39.440Z,5.85
2022-10-17T03:55:41.027Z,5.93
2022-10-17T03:58:43.057Z,6.18
2022-10-17T04:01:44.899Z,6.25
2022-10-17T04:04:46.492Z,5.82
2022-10-17T04:07:48.027Z,5.78
2022-10-17T04:10:49.575Z,6.18
2022-10-17T04:13:55.835Z,6.07
2022-10-17T04:16:58.564Z,6.30
2022-10-17T04:20:00.301Z,5.38
2022-10-17T04:23:01.849Z,5.65
2022-10-17T04:26:04.651Z,6.05
2022-10-17T04:29:06.218Z,6.60
2022-10-17T04:32:07.851Z,6.07
2022-10-17T04:35:09.517Z,5.75
2022-10-17T04:38:11.108Z,6.43
2022-10-17T04:41:17.636Z,5.90
2022-10-17T04:44:22.993Z,6.18
2022-10-17T04:47:24.561Z,5.75
2022-10-17T04:50:26.277Z,6.03
2022-10-17T04:53:30.358Z,5.82
2022-10-17T04:56:31.963Z,5.88
2022-10-17T04:59:33.507Z,5.78
2022-10-17T05:02:35.125Z,6.38
2022-10-17T05:05:43.352Z,5.85
2022-10-17T05:08:45.013Z,5.60
2022-10-17T05:11:46.591Z,5.50
2022-10-17T05:14:48.152Z,6.10
2022-10-17T05:17:53.924Z,5.30
2022-10-17T05:20:55.833Z,5.68
2022-10-17T05:23:57.939Z,5.63
2022-10-17T05:26:59.785Z,5.13
2022-10-17T05:30:01.346Z,5.70
2022-10-17T05:33:03.308Z,5.70
2022-10-17T05:36:05.849Z,5.43
2022-10-17T05:39:08.605Z,6.10
2022-10-17T05:42:10.191Z,6.38
2022-10-17T05:45:11.925Z,6.07
2022-10-17T05:48:13.501Z,5.43
2022-10-17T05:51:16.165Z,5.68
2022-10-17T05:54:17.692Z,6.15
2022-10-17T05:57:19.261Z,5.47
2022-10-17T06:00:22.038Z,5.70
2022-10-17T06:03:23.578Z,5.78
2022-10-17T06:06:25.164Z,5.90
2022-10-17T06:09:26.711Z,5.45
2022-10-17T06:12:28.595Z,5.82
2022-10-17T06:15:30.397Z,6.15
2022-10-17T06:18:32.549Z,6.38
2022-10-17T06:21:36.460Z,5.53
2022-10-17T06:24:38.081Z,5.32
2022-10-17T06:27:39.663Z,6.07
2022-10-17T06:30:41.471Z,5.45
2022-10-17T06:33:43.384Z,5.90
2022-10-17T06:36:45.009Z,5.75
2022-10-17T06:39:46.545Z,5.65
2022-10-17T06:42:48.175Z,5.50
2022-10-17T06:45:49.756Z,5.70
2022-10-17T06:48:51.325Z,5.60
2022-10-17T06:51:52.891Z,5.65
2022-10-17T06:54:54.502Z,5.90
2022-10-17T06:57:56.383Z,5.35
2022-10-17T07:01:10.589Z,5.20
2022-10-17T07:04:12.185Z,4.65
2022-10-17T07:07:13.744Z,5.70
2022-10-17T07:10:17.677Z,5.05
2022-10-17T07:13:19.876Z,5.18
2022-10-17T07:16:21.441Z,5.40
2022-10-17T07:19:22.962Z,5.20
2022-10-17T07:22:24.596Z,5.60
2022-10-17T07:25:26.311Z,5.10
2022-10-17T07:28:28.983Z,6.10
2022-10-17T07:31:30.663Z,5.68
2022-10-17T07:34:33.337Z,5.47
2022-10-17T07:37:35.233Z,4.90
2022-10-17T07:40:36.818Z,5.25
2022-10-17T07:43:38.951Z,5.78
2022-10-17T07:46:40.645Z,5.15
2022-10-17T07:49:44.009Z,4.78
2022-10-17T07:52:45.585Z,4.70
2022-10-17T07:55:47.985Z,4.57
2022-10-17T07:58:49.569Z,5.00
2022-10-17T08:01:51.210Z,4.85
2022-10-17T08:04:53.540Z,4.63
2022-10-17T08:07:55.199Z,4.90
2022-10-17T08:11:06.243Z,5.30
2022-10-17T08:14:07.818Z,4.25
2022-10-17T08:17:09.753Z,4.32
2022-10-17T08:20:11.756Z,4.65
2022-10-17T08:23:13.305Z,4.65
2022-10-17T08:26:17.162Z,4.93
2022-10-17T08:29:19.471Z,5.13
2022-10-17T08:32:22.380Z,5.03
2022-10-17T08:35:24.005Z,4.63
2022-10-17T08:38:27.870Z,4.65
2022-10-17T08:41:57.033Z,4.70
2022-10-17T08:45:17.224Z,4.97
2022-10-17T08:48:23.114Z,4.70
2022-10-17T08:51:33.146Z,4.57
2022-10-17T08:54:45.890Z,4.50
2022-10-17T08:57:48.476Z,5.22
2022-10-17T09:01:33.716Z,4.85
2022-10-17T09:04:57.422Z,4.40
2022-10-17T09:08:13.945Z,4.68
2022-10-17T09:11:36.927Z,5.00
2022-10-17T09:15:07.915Z,3.97
2022-10-17T09:18:12.332Z,4.68
2022-10-17T09:21:26.542Z,4.30
2022-10-17T09:24:45.712Z,4.70
2022-10-17T09:28:02.533Z,4.50
2022-10-17T09:31:27.215Z,5.05
2022-10-17T09:34:31.193Z,5.57
2022-10-17T09:37:32.924Z,4.60
2022-10-17T09:40:36.498Z,4.70
2022-10-17T09:43:39.815Z,4.55
2022-10-17T09:46:50.438Z,4.50
2022-10-17T09:49:52.474Z,4.68
2022-10-17T09:52:55.597Z,4.93
2022-10-17T09:56:00.044Z,4.60
2022-10-17T09:59:01.643Z,4.82
2022-10-17T10:02:19.716Z,4.43
2022-10-17T10:05:21.686Z,4.53
2022-10-17T10:08:26.219Z,5.18
2022-10-17T10:11:47.530Z,4.75
2022-10-17T10:14:54.598Z,4.63
2022-10-17T10:17:56.884Z,4.93
2022-10-17T10:21:15.205Z,4.47
2022-10-17T10:24:16.715Z,4.20
2022-10-17T10:27:20.560Z,4.28
2022-10-17T10:30:27.665Z,4.40
2022-10-17T10:33:41.752Z,4.80
2022-10-17T10:36:53.728Z,4.40
2022-10-17T10:40:00.848Z,4.40
2022-10-17T10:43:05.618Z,4.40
2022-10-17T10:46:36.519Z,4.70
2022-10-17T10:49:39.174Z,4.68
2022-10-17T10:52:47.981Z,4.40
2022-10-17T10:55:51.768Z,5.05
2022-10-17T10:58:54.945Z,4.35
2022-10-17T11:01:59.901Z,4.25
2022-10-17T11:05:18.063Z,4.60
2022-10-17T11:08:47.369Z,4.95
2022-10-17T11:12:06.946Z,4.78
2022-10-17T11:15:26.697Z,4.60
2022-10-17T11:19:08.142Z,4.60
2022-10-17T11:22:17.942Z,4.60
2022-10-17T11:25:30.491Z,4.78
2022-10-17T11:28:32.331Z,4.53
2022-10-17T11:31:43.353Z,5.28
2022-10-17T11:34:49.597Z,4.90
2022-10-17T11:38:03.101Z,7.93
2022-10-17T11:41:06.548Z,5.53
2022-10-17T11:44:21.598Z,6.10
2022-10-17T11:47:43.728Z,5.25
2022-10-17T11:54:52.506Z,5.78
2022-10-17T11:58:13.053Z,5.53
2022-10-17T12:01:43.619Z,5.30
2022-10-17T12:08:40.282Z,5.60
2022-10-17T12:11:55.721Z,5.35
2022-10-17T12:15:23.375Z,6.07
2022-10-17T12:18:29.135Z,8.32
2022-10-17T12:22:13.919Z,4.75
2022-10-17T12:25:26.163Z,5.22
2022-10-17T12:28:33.663Z,5.63
2022-10-17T12:31:35.245Z,5.70
2022-10-17T12:34:38.020Z,5.75
2022-10-17T12:37:45.586Z,5.47
2022-10-17T12:40:49.934Z,5.60
2022-10-17T12:43:53.770Z,5.50
2022-10-17T12:47:10.549Z,6.07
2022-10-17T12:50:56.516Z,5.55
2022-10-17T12:54:14.896Z,6.72
2022-10-17T12:57:37.702Z,6.05
2022-10-17T13:01:18.964Z,6.22
2022-10-17T13:04:16.648Z,6.50
2022-10-17T13:07:21.097Z,6.47
2022-10-17T13:13:38.229Z,6.30
2022-10-17T13:16:51.094Z,6.13
2022-10-17T13:19:53.181Z,6.60
2022-10-17T13:22:57.087Z,6.18
2022-10-17T13:26:19.904Z,7.10
2022-10-17T13:29:23.340Z,6.47
2022-10-17T13:32:27.829Z,6.97
2022-10-17T13:35:58.934Z,6.38
2022-10-17T13:39:11.996Z,9.10
2022-10-17T13:42:28.302Z,8.20
2022-10-17T13:45:33.404Z,9.45
2022-10-17T13:48:37.760Z,6.75
2022-10-17T13:51:43.865Z,6.18
2022-10-17T13:54:48.150Z,5.75
2022-10-17T13:57:49.648Z,5.55
2022-10-17T14:00:52.703Z,5.65
2022-10-17T14:04:07.638Z,5.80
2022-10-17T14:07:34.091Z,5.65
2022-10-17T14:10:41.333Z,5.75
2022-10-17T14:13:44.230Z,6.10
2022-10-17T14:16:46.090Z,5.55
2022-10-17T14:20:05.852Z,5.40
2022-10-17T14:23:41.930Z,5.68
2022-10-17T14:26:51.165Z,4.97
2022-10-17T14:29:54.994Z,6.57
2022-10-17T14:33:03.388Z,6.28
2022-10-17T14:36:05.422Z,5.65
2022-10-17T14:39:18.167Z,5.05
2022-10-17T14:42:21.629Z,5.30
2022-10-17T14:45:35.682Z,5.35
2022-10-17T14:48:37.252Z,4.95
2022-10-17T14:51:50.340Z,5.05
2022-10-17T14:55:00.259Z,4.80
2022-10-17T14:58:02.295Z,4.88
2022-10-17T15:01:03.898Z,4.60
2022-10-17T15:04:05.496Z,4.85
2022-10-17T15:07:13.639Z,5.20
2022-10-17T15:10:34.150Z,6.60
2022-10-17T15:16:44.989Z,5.80
2022-10-17T15:19:47.457Z,5.60
2022-10-17T15:22:49.098Z,6.25
2022-10-17T15:25:50.705Z,6.22
2022-10-17T15:28:53.333Z,5.93
2022-10-17T15:31:54.938Z,7.25
2022-10-17T15:34:56.458Z,6.55
2022-10-17T15:37:58.147Z,7.13
2022-10-17T15:40:59.690Z,7.00
2022-10-17T15:44:01.421Z,7.10
2022-10-17T15:47:03.370Z,7.15
2022-10-17T15:50:06.582Z,8.32
2022-10-17T15:53:24.006Z,7.20
2022-10-17T15:56:31.519Z,8.45
2022-10-17T15:59:34.814Z,6.90
2022-10-17T16:02:43.010Z,6.80
2022-10-17T16:06:34.482Z,11.00
2022-10-17T16:10:00.110Z,7.47
2022-10-17T16:13:34.052Z,7.55
2022-10-17T16:16:35.638Z,6.13
2022-10-17T16:19:37.260Z,6.20
2022-10-17T16:26:40.019Z,5.63
2022-10-17T16:30:02.281Z,5.15
2022-10-17T16:33:46.728Z,5.13
2022-10-17T16:36:48.261Z,5.25
2022-10-17T16:39:52.374Z,5.78
2022-10-17T16:42:59.594Z,5.13
2022-10-17T16:46:07.537Z,5.60
2022-10-17T16:49:12.778Z,5.18
2022-10-17T16:52:17.238Z,5.47
2022-10-17T16:55:19.577Z,5.13
2022-10-17T16:58:43.930Z,4.90
2022-10-17T17:01:45.681Z,5.38
2022-10-17T17:04:49.933Z,5.53
2022-10-17T17:07:51.520Z,5.40
2022-10-17T17:10:54.835Z,6.15
2022-10-17T17:13:59.131Z,5.65
2022-10-17T17:17:00.783Z,7.00
2022-10-17T17:20:02.420Z,6.35
2022-10-17T17:23:07.137Z,6.82
2022-10-17T17:26:15.078Z,7.82
2022-10-17T17:29:16.678Z,7.47
2022-10-17T17:32:18.214Z,6.80
2022-10-17T17:35:19.898Z,7.32
2022-10-17T17:38:21.884Z,7.38
2022-10-17T17:41:23.876Z,6.68
2022-10-17T17:44:26.742Z,8.27
2022-10-17T17:47:29.549Z,7.38
2022-10-17T17:50:32.793Z,6.70
2022-10-17T17:53:35.088Z,6.97
2022-10-17T17:56:40.877Z,6.78
2022-10-17T17:59:42.419Z,6.97
2022-10-17T18:02:44.560Z,7.32
2022-10-17T18:05:46.181Z,6.90
2022-10-17T18:08:50.536Z,7.65
2022-10-17T18:11:52.235Z,7.28
2022-10-17T18:14:53.828Z,6.68
2022-10-17T18:17:55.361Z,7.22
2022-10-17T18:21:00.812Z,7.57
2022-10-17T18:24:04.366Z,9.30
2022-10-17T18:27:05.981Z,11.73
2022-10-17T18:30:10.400Z,8.25
2022-10-17T18:33:12.492Z,7.40
2022-10-17T18:36:15.866Z,6.57
2022-10-17T18:39:17.441Z,6.82
2022-10-17T18:42:19.036Z,6.22
2022-10-17T18:45:21.957Z,7.28
2022-10-17T18:48:23.491Z,7.43
2022-10-17T18:51:25.943Z,7.05
2022-10-17T18:54:27.677Z,7.47
2022-10-17T18:57:29.521Z,7.50
2022-10-17T19:00:31.357Z,7.20
2022-10-17T19:03:33.084Z,6.63
2022-10-17T19:06:34.786Z,7.15
2022-10-17T19:09:41.438Z,6.68
2022-10-17T19:12:43.064Z,6.07
2022-10-17T19:15:44.681Z,6.07
2022-10-17T19:18:54.637Z,6.15
2022-10-17T19:21:56.587Z,10.15
2022-10-17T19:24:58.163Z,9.18
2022-10-17T19:27:59.738Z,7.22
2022-10-17T19:31:01.330Z,6.50
2022-10-17T19:34:03.122Z,5.78
2022-10-17T19:37:04.806Z,5.88
2022-10-17T19:40:09.122Z,4.93
2022-10-17T19:43:10.688Z,4.88
2022-10-17T19:46:15.058Z,4.30
2022-10-17T19:49:17.166Z,4.50
2022-10-17T19:52:18.720Z,4.97
2022-10-17T19:55:20.315Z,4.22
2022-10-17T19:58:22.763Z,3.72
2022-10-17T20:01:28.359Z,3.17
2022-10-17T20:04:29.985Z,3.50
2022-10-17T20:07:31.499Z,3.65
2022-10-17T20:10:33.940Z,3.72
2022-10-17T20:13:37.150Z,3.05
2022-10-17T20:16:38.825Z,3.28
2022-10-17T20:19:42.880Z,3.40
2022-10-17T20:22:44.597Z,3.80
2022-10-17T20:25:46.161Z,3.65
2022-10-17T20:28:48.610Z,3.92
2022-10-17T20:31:50.678Z,4.03
2022-10-17T20:34:58.502Z,3.50
2022-10-17T20:38:00.053Z,9.38
2022-10-17T20:41:05.823Z,8.52
2022-10-17T20:44:07.765Z,6.05
2022-10-17T20:47:16.237Z,4.13
2022-10-17T20:50:17.984Z,4.07
2022-10-17T20:53:37.245Z,3.85
2022-10-17T20:56:39.781Z,3.80
2022-10-17T20:59:41.507Z,4.07
2022-10-17T21:02:43.130Z,4.53
2022-10-17T21:05:44.681Z,4.05
2022-10-17T21:08:47.519Z,3.83
2022-10-17T21:11:52.409Z,3.70
2022-10-17T21:14:53.991Z,4.07
2022-10-17T21:17:55.641Z,3.67
2022-10-17T21:21:07.395Z,3.60
2022-10-17T21:24:14.285Z,4.55
2022-10-17T21:27:19.181Z,3.47
2022-10-17T21:30:21.574Z,4.32
2022-10-17T21:33:23.195Z,4.45
2022-10-17T21:36:26.120Z,4.45
2022-10-17T21:39:27.669Z,4.65
2022-10-17T21:42:29.490Z,4.88
2022-10-17T21:45:31.380Z,4.22
2022-10-17T21:48:33.767Z,4.82
2022-10-17T21:51:35.546Z,5.43
2022-10-17T21:54:37.117Z,4.40
2022-10-17T21:57:38.750Z,5.13
2022-10-17T22:00:40.297Z,5.07
2022-10-17T22:03:46.748Z,6.03
2022-10-17T22:06:51.035Z,5.93
2022-10-17T22:09:52.683Z,6.00
2022-10-17T22:12:54.249Z,5.85
2022-10-17T22:16:04.607Z,5.65
2022-10-17T22:19:08.082Z,6.80
2022-10-17T22:22:09.649Z,5.60
2022-10-17T22:25:11.225Z,4.90
2022-10-17T22:28:12.861Z,4.50
2022-10-17T22:31:14.932Z,5.82
2022-10-17T22:34:17.730Z,5.90
2022-10-17T22:37:19.284Z,6.22
2022-10-17T22:40:20.841Z,4.90
2022-10-17T22:43:22.709Z,6.35
2022-10-17T22:46:24.258Z,6.22
2022-10-17T22:49:25.804Z,5.50
2022-10-17T22:52:27.459Z,4.90
2022-10-17T22:55:29.088Z,5.93
2022-10-17T22:58:31.778Z,5.57
2022-10-17T23:01:33.378Z,4.55
2022-10-17T23:04:35.188Z,4.85
2022-10-17T23:07:37.160Z,5.40
2022-10-17T23:10:39.183Z,5.32
2022-10-17T23:13:41.077Z,5.40
2022-10-17T23:16:42.689Z,4.57
2022-10-17T23:19:44.264Z,4.20
2022-10-17T23:22:45.803Z,4.70
2022-10-17T23:25:47.701Z,4.90
2022-10-17T23:29:03.543Z,4.90
2022-10-17T23:33:03.133Z,4.38
2022-10-17T23:36:05.361Z,5.03
2022-10-17T23:39:07.421Z,4.75
2022-10-17T23:42:09.051Z,4.25
2022-10-17T23:45:11.421Z,4.90
2022-10-17T23:48:13.016Z,4.60
2022-10-17T23:51:14.619Z,4.65
2022-10-17T23:54:16.343Z,4.35
2022-10-17T23:57:17.974Z,4.20
